Floodwood, MN (55736)

6:43 PM CDT on July 29, 2015 (GMT -0500)
Lake Minnewawa | | Change Station
CLOSE
Current Station
Personal Weather Station
Location: McGregor, MN
Elevation: 1247 ft
Nearby Weather Stations
Active Advisory: Wind Advisory Active Notice: Public Information Statement

Elev 1247 ft 46.71 °N, 93.24 °W | Updated 6 minutes ago

Partly Cloudy
Partly Cloudy
76.3 °F
Feels Like 78 °F
N
8.3
Wind Variable Wind from WNW

Today
High -- | Low -- °F
--% Chance of Precip.
Yesterday
High -- | Low -- °F
Precip. -- in
5:47 AM 8:48 PM
Waxing Gibbous, 97% visible
Pressure 29.83 in
Visibility 10.0 miles
Clouds Scattered Clouds 7500 ft
Heat Index 78 °F
Dew Point 52 °F
Humidity 43%
Rainfall 0.00 in
Snow Depth Not available.
UV 1 out of 12
Pollen 5.60 out of 12
Air Quality Not available.
Flu Activity Not available.
METAR KCOQ 292335Z AUTO 27014G23KT 10SM SCT075 24/10 A2983 RMK AO2

More Conditions Fewer Conditions

Pressure 29.83 in
Visibility 10.0 miles
Clouds Scattered Clouds 7500 ft
Heat Index 78 °F
Dew Point 52 °F
Humidity 43%
Rainfall 0.00 in
Snow Depth Not available.
UV 1 out of 12
Pollen 5.60 out of 12
Air Quality Not available.
Flu Activity Not available.
METAR KCOQ 292335Z AUTO 27014G23KT 10SM SCT075 24/10 A2983 RMK AO2

More Conditions Fewer Conditions

10-Day Weather Forecast

×

Almanac

Astronomy

Jul. 29, 2015 Rise Set
Actual Time
Civil Twilight
Nautical Twilight
Astronomical Twilight
Moon
Length of Visible Light
Length of Day
Tomorrow will be .
, % of the Moon is Illuminated

Today's Extremes

State Highs State Lows

Community

WunderPhotos

Upload Photos

1,842,196 photos uploaded!

WunderBlogs® & News

Nearby

Air Quality

  Air Quality AQ Index Pollutant
Not available.

Snow Depth

Station Depth Elevation

Earthquake Activity

City Distance Mag. Time & Date
Minimum magnitude displayed is 2.5.

Coastal Water Temperatures

Place Temperature

Stations

Nearby Weather Stations

Station Location Temp. Windchill Dew Point Humidity Wind Precip. Elev Updated Type
                   
Wind Advisory
Statement as of 2:47 PM CDT on July 29, 2015

... Wind Advisory remains in effect until 7 PM CDT this evening...

* location... northeast Minnesota and Douglas County Wisconsin.

* Winds... west 15 to 25 mph with gusts up to 40 mph.

* Timing... through early this evening. The winds will peak late
this afternoon. The winds will gradually decrease this evening.

* Impacts... unsecured outdoor objects could be blown around.
Branches and small trees may blow down.

Precautionary/preparedness actions...

A Wind Advisory means that winds of 35 mph are expected. Winds
this strong can make driving difficult... especially for high
profile vehicles. Use extra caution.

Secure loose outdoor objects such as lawn furniture and garbage
cans. Take down hanging planters and other hanging objects such
as wind Chimes and bird feeders.

Be careful in wooded areas as branches and small trees may be
blown down.



G2